»·PEaware :: SWA2300 KTUS-KSAN

SWA2300 :: KTUS-KSAN

FLIGHT INFORMATION

Flight Status: Arrived
Operator:
Southwest Airlines
More flights by this operator :: More flights under this callsign
Pilot: Daniel W. (24238)
Aircraft: BOEING 737-800
(B738)
More flights by this aircraft type
Origin: KTUS Tucson Intl
United States
Destination: KSAN San Diego Intl-Lindbergh
United States
More flights between these airports :: More routes between these airports
Route: WLDKT3 GBN J2 HOGGZ LUCKI1
File this flight plan on PilotEdge
Remarks: PBN / A1C1D1L1O1S2TI NAV / RNVD1E1A1 RNP10 RNP4 DAT / 1FANSE2PDC SUR / 260B REG / N8541W EET / KZLA0028 SEL / ESAJ CODE / ABB8C4
Altitude:
(Current/Filed)
32,000ft
Speed:
(Current/Filed)
453kts
Departed: 26-Nov-23 05:23 PM
Arrived: 26-Nov-23 06:20 PM
Distance/Time
Traveled:
319nm/0:57
Distance/Time
To Go:
Arrived

Flight Plot

Page will automatically refresh every two minutes.

Flight plan parsing failed; only flown route is shown


Map Options




Map Legend


Flown Route
Filed Route
Departure Airport
Arrival Airport
Navaid (VOR, NDB)
Fix

Horizontal Profiles

Position Reports

Time Latitude Longitude Heading Altitude Ground
Speed
26-Nov-23 16:23 32.118491 -110.937350 58 2589ft 0kts
26-Nov-23 16:24 32.118491 -110.937350 58 2589ft 0kts
26-Nov-23 16:25 32.118491 -110.937350 58 2589ft 0kts
26-Nov-23 16:26 32.118491 -110.937350 58 2592ft 0kts
26-Nov-23 16:27 32.118491 -110.937350 58 2592ft 0kts
26-Nov-23 16:28 32.118491 -110.937350 58 2592ft 0kts
26-Nov-23 16:29 32.118491 -110.937350 58 2592ft 0kts
26-Nov-23 16:30 32.118491 -110.937350 58 2592ft 0kts
26-Nov-23 16:31 32.118491 -110.937350 58 2592ft 0kts
26-Nov-23 16:32 32.118491 -110.937350 58 2592ft 0kts
26-Nov-23 16:33 32.118491 -110.937350 58 2592ft 0kts
26-Nov-23 16:34 32.118491 -110.937350 58 2592ft 0kts
26-Nov-23 16:35 32.118491 -110.937350 58 2592ft 0kts
26-Nov-23 16:36 32.118491 -110.937350 58 2592ft 0kts
26-Nov-23 16:37 32.118491 -110.937350 58 2592ft 0kts
26-Nov-23 16:38 32.118491 -110.937350 58 2592ft 0kts
26-Nov-23 16:39 32.118491 -110.937350 58 2592ft 0kts
26-Nov-23 16:40 32.118491 -110.937350 58 2592ft 0kts
26-Nov-23 16:41 32.118491 -110.937350 58 2592ft 0kts
26-Nov-23 16:42 32.118491 -110.937350 58 2592ft 0kts
26-Nov-23 16:43 32.118491 -110.937350 58 2592ft 0kts
26-Nov-23 16:44 32.118491 -110.937350 58 2592ft 0kts
26-Nov-23 16:45 32.118491 -110.937350 58 2592ft 0kts
26-Nov-23 16:46 32.118491 -110.937350 58 2592ft 0kts
26-Nov-23 16:47 32.118491 -110.937350 58 2592ft 0kts
26-Nov-23 16:48 32.118491 -110.937350 58 2592ft 0kts
26-Nov-23 16:49 32.118491 -110.937350 58 2592ft 0kts
26-Nov-23 16:50 32.118491 -110.937350 58 2592ft 0kts
26-Nov-23 16:51 32.118491 -110.937350 58 2592ft 0kts
26-Nov-23 16:52 32.118491 -110.937350 58 2592ft 0kts
26-Nov-23 16:53 32.118491 -110.937350 58 2592ft 0kts
26-Nov-23 16:54 32.118491 -110.937350 58 2592ft 0kts
26-Nov-23 16:55 32.118491 -110.937350 58 2592ft 0kts
26-Nov-23 16:56 32.118491 -110.937350 58 2592ft 0kts
26-Nov-23 16:57 32.118491 -110.937350 58 2592ft 0kts
26-Nov-23 16:58 32.118491 -110.937350 58 2592ft 0kts
26-Nov-23 16:59 32.118491 -110.937350 58 2592ft 0kts
26-Nov-23 17:00 32.118491 -110.937350 58 2592ft 0kts
26-Nov-23 17:01 32.118491 -110.937350 58 2592ft 0kts
26-Nov-23 17:02 32.118491 -110.937350 58 2592ft 0kts
26-Nov-23 17:03 32.118491 -110.937350 58 2592ft 0kts
26-Nov-23 17:04 32.118491 -110.937350 58 2592ft 0kts
26-Nov-23 17:05 32.118491 -110.937350 58 2592ft 0kts
26-Nov-23 17:06 32.118491 -110.937350 58 2592ft 0kts
26-Nov-23 17:07 32.118491 -110.937350 58 2592ft 0kts
26-Nov-23 17:08 32.118491 -110.937350 58 2592ft 0kts
26-Nov-23 17:09 32.118491 -110.937350 58 2573ft 0kts
26-Nov-23 17:10 32.118491 -110.937350 58 2573ft 0kts
26-Nov-23 17:11 32.118491 -110.937350 58 2573ft 0kts
26-Nov-23 17:12 32.118491 -110.937350 58 2573ft 0kts
26-Nov-23 17:13 32.118280 -110.937912 94 2587ft 0kts
26-Nov-23 17:14 32.118280 -110.937912 94 2587ft 0kts
26-Nov-23 17:15 32.118280 -110.937912 94 2587ft 0kts
26-Nov-23 17:16 32.118280 -110.937912 94 2587ft 0kts
26-Nov-23 17:17 32.117782 -110.937747 225 2592ft 5kts
26-Nov-23 17:18 32.115916 -110.936713 135 2600ft 18kts
26-Nov-23 17:19 32.111311 -110.931298 135 2618ft 25kts
26-Nov-23 17:20 32.106685 -110.925871 135 2639ft 21kts
26-Nov-23 17:21 32.102697 -110.923365 271 2655ft 17kts
26-Nov-23 17:22 32.117789 -110.941385 313 2935ft 164kts
26-Nov-23 17:23 32.154998 -110.986229 316 4697ft 237kts
26-Nov-23 17:24 32.208735 -111.048896 315 6822ft 287kts
26-Nov-23 17:25 32.235074 -111.136234 275 10355ft 295kts
26-Nov-23 17:26 32.250440 -111.245596 277 12453ft 357kts
26-Nov-23 17:27 32.267342 -111.361994 278 15743ft 364kts
26-Nov-23 17:28 32.290847 -111.479358 298 18630ft 380kts
26-Nov-23 17:29 32.350565 -111.584499 300 21230ft 389kts
26-Nov-23 17:30 32.411464 -111.691974 299 23575ft 399kts
26-Nov-23 17:31 32.473860 -111.803180 299 25310ft 411kts
26-Nov-23 17:32 32.537819 -111.917544 299 26920ft 422kts
26-Nov-23 17:33 32.603080 -112.034583 299 28465ft 430kts
26-Nov-23 17:34 32.668329 -112.151891 298 30570ft 423kts
26-Nov-23 17:35 32.732878 -112.268413 298 32051ft 423kts
26-Nov-23 17:36 32.797273 -112.384995 298 32071ft 420kts
26-Nov-23 17:37 32.861243 -112.501192 298 32077ft 420kts
26-Nov-23 17:38 32.925351 -112.617995 298 32076ft 421kts
26-Nov-23 17:39 32.947626 -112.746346 259 32081ft 402kts
26-Nov-23 17:40 32.928899 -112.878387 259 32071ft 405kts
26-Nov-23 17:41 32.910714 -113.010895 259 32070ft 407kts
26-Nov-23 17:42 32.892603 -113.143932 259 32064ft 408kts
26-Nov-23 17:43 32.874330 -113.277069 259 32069ft 408kts
26-Nov-23 17:44 32.855904 -113.410207 259 32069ft 408kts
26-Nov-23 17:45 32.837358 -113.543167 259 32068ft 407kts
26-Nov-23 17:46 32.818635 -113.676393 259 32073ft 408kts
26-Nov-23 17:47 32.799560 -113.809308 258 32075ft 409kts
26-Nov-23 17:48 32.780280 -113.942536 258 32075ft 410kts
26-Nov-23 17:49 32.775067 -114.078231 268 32081ft 413kts
26-Nov-23 17:50 32.780680 -114.214942 270 32088ft 414kts
26-Nov-23 17:51 32.786120 -114.351642 270 32092ft 415kts
26-Nov-23 17:52 32.814381 -114.485192 285 32100ft 421kts
26-Nov-23 17:53 32.851158 -114.617775 284 32097ft 421kts
26-Nov-23 17:54 32.879927 -114.751490 266 32122ft 413kts
26-Nov-23 17:55 32.875932 -114.888044 266 32116ft 415kts
26-Nov-23 17:56 32.872599 -115.025577 266 32124ft 416kts
26-Nov-23 17:57 32.869314 -115.163681 266 30381ft 411kts
26-Nov-23 17:58 32.866013 -115.296082 266 28266ft 391kts
26-Nov-23 17:59 32.854083 -115.421475 258 26323ft 373kts
26-Nov-23 18:00 32.836688 -115.536279 257 24497ft 364kts
26-Nov-23 18:01 32.817249 -115.653519 258 22487ft 357kts
26-Nov-23 18:02 32.798500 -115.767409 258 20642ft 347kts
26-Nov-23 18:03 32.781796 -115.879844 263 19110ft 349kts
26-Nov-23 18:04 32.773984 -115.995371 264 17696ft 348kts
26-Nov-23 18:05 32.765509 -116.110069 264 15679ft 348kts
26-Nov-23 18:06 32.756809 -116.224069 263 13549ft 347kts
26-Nov-23 18:07 32.748328 -116.333767 263 12026ft 327kts
26-Nov-23 18:08 32.740057 -116.439973 264 10454ft 317kts
26-Nov-23 18:09 32.731830 -116.537861 262 9726ft 285kts
26-Nov-23 18:10 32.722880 -116.629308 263 8403ft 275kts
26-Nov-23 18:11 32.715293 -116.718643 264 7264ft 268kts
26-Nov-23 18:12 32.708451 -116.805947 264 6147ft 263kts
26-Nov-23 18:13 32.686428 -116.886860 248 4873ft 250kts
26-Nov-23 18:14 32.677767 -116.961766 287 3872ft 225kts
26-Nov-23 18:15 32.694858 -117.030628 286 2823ft 210kts
26-Nov-23 18:16 32.710505 -117.094655 286 1734ft 191kts
26-Nov-23 18:17 32.723245 -117.147137 286 701ft 146kts
26-Nov-23 18:18 32.734242 -117.192438 286 20ft 101kts
26-Nov-23 18:19 32.734389 -117.197375 128 22ft 7kts
26-Nov-23 18:20 32.733730 -117.197768 255 20ft 0kts
26-Nov-23 18:21 32.733730 -117.197768 255 20ft 0kts
26-Nov-23 18:22 32.733730 -117.197768 255 20ft 0kts
26-Nov-23 18:23 32.733730 -117.197768 255 19ft 0kts

Navigation Log

Ident Type
Flight plan parsing failed, navigation log unavailable